createdAt,value
2018-03-31T00:00:02.820Z,84.50
2018-03-31T00:01:03.443Z,82.90
2018-03-31T00:02:02.784Z,76.00
2018-03-31T00:03:03.135Z,69.70
2018-03-31T00:04:02.733Z,83.60
2018-03-31T00:05:03.092Z,81.20
2018-03-31T00:06:02.788Z,84.50
2018-03-31T00:07:03.416Z,79.70
2018-03-31T00:08:23.563Z,82.50
2018-03-31T00:09:24.321Z,75.70
2018-03-31T00:10:44.315Z,76.30
2018-03-31T00:11:44.575Z,76.40
2018-03-31T00:12:45.258Z,71.10
2018-03-31T00:13:44.390Z,75.00
2018-03-31T00:14:45.090Z,69.30
2018-03-31T00:16:05.287Z,78.70
2018-03-31T00:17:06.086Z,78.30
2018-03-31T00:17:26.495Z,74.60
2018-03-31T00:18:47.290Z,69.90
2018-03-31T00:19:47.809Z,69.10
2018-03-31T00:21:28.574Z,68.80
2018-03-31T00:22:27.951Z,76.80
2018-03-31T00:23:28.378Z,77.70
2018-03-31T00:24:28.703Z,73.70
2018-03-31T00:25:28.320Z,82.00
2018-03-31T00:26:28.967Z,76.30
2018-03-31T00:27:28.692Z,67.60
2018-03-31T00:28:27.985Z,70.00
2018-03-31T00:29:50.282Z,69.20
2018-03-31T00:30:50.855Z,69.20
2018-03-31T00:31:50.407Z,72.00
2018-03-31T00:32:51.112Z,73.30
2018-03-31T00:33:50.864Z,70.60
2018-03-31T00:34:50.255Z,82.70
2018-03-31T00:35:50.748Z,85.50
2018-03-31T00:36:50.355Z,82.10
2018-03-31T00:37:50.774Z,85.70
2018-03-31T00:38:50.915Z,83.10
2018-03-31T00:39:50.026Z,86.00
2018-03-31T00:40:50.210Z,84.50
2018-03-31T00:41:50.692Z,90.40
2018-03-31T00:42:50.242Z,86.90
2018-03-31T00:43:51.734Z,84.50
2018-03-31T00:44:50.044Z,89.30
2018-03-31T00:45:50.836Z,86.00
2018-03-31T00:46:50.322Z,84.00
2018-03-31T00:47:50.874Z,77.10
2018-03-31T00:48:50.650Z,73.40
2018-03-31T00:49:51.204Z,71.50
2018-03-31T00:50:50.735Z,80.00
2018-03-31T00:51:51.297Z,81.10
2018-03-31T00:52:50.806Z,77.80
2018-03-31T00:53:50.404Z,77.70
2018-03-31T00:54:51.164Z,79.50
2018-03-31T00:55:51.028Z,80.20
2018-03-31T00:56:50.689Z,82.70
2018-03-31T00:57:50.191Z,92.60
2018-03-31T00:58:50.512Z,87.80
2018-03-31T00:59:50.885Z,95.40
2018-03-31T01:00:50.176Z,93.10
2018-03-31T01:01:51.055Z,93.30
2018-03-31T01:02:50.433Z,89.00
2018-03-31T01:03:51.020Z,88.40
2018-03-31T01:04:50.670Z,91.60
2018-03-31T01:05:51.422Z,90.20
2018-03-31T01:07:33.097Z,76.40
2018-03-31T01:08:33.438Z,82.40
2018-03-31T01:09:33.648Z,90.90
2018-03-31T01:10:33.141Z,96.00
2018-03-31T01:11:33.487Z,96.50
2018-03-31T01:12:34.055Z,91.00
2018-03-31T01:13:33.464Z,83.70
2018-03-31T01:14:33.951Z,94.30
2018-03-31T01:15:33.684Z,87.50
2018-03-31T01:16:33.070Z,97.40
2018-03-31T01:17:33.859Z,91.00
2018-03-31T01:18:33.537Z,96.70
2018-03-31T01:19:53.957Z,100.80
2018-03-31T01:20:54.766Z,102.40
2018-03-31T01:21:54.366Z,104.40
2018-03-31T01:22:54.948Z,106.00
2018-03-31T01:23:54.407Z,112.80
2018-03-31T01:24:54.908Z,111.10
2018-03-31T01:26:15.663Z,115.30
2018-03-31T01:27:17.084Z,105.80
2018-03-31T01:28:15.681Z,106.00
2018-03-31T01:29:16.108Z,111.80
2018-03-31T01:30:36.884Z,114.30
2018-03-31T01:31:37.703Z,115.30
2018-03-31T01:32:37.242Z,121.30
2018-03-31T01:33:37.139Z,113.70
2018-03-31T01:34:36.662Z,122.10
2018-03-31T01:35:37.645Z,114.90
2018-03-31T01:36:37.693Z,117.50
2018-03-31T01:37:39.017Z,114.90
2018-03-31T01:38:38.020Z,136.70
2018-03-31T01:39:41.032Z,125.50
2018-03-31T01:40:38.808Z,120.30
2018-03-31T01:41:37.767Z,124.90
2018-03-31T01:42:37.894Z,126.50
2018-03-31T01:43:37.487Z,123.60
2018-03-31T01:44:37.041Z,129.10
2018-03-31T01:45:36.686Z,124.40
2018-03-31T01:46:37.197Z,123.10
2018-03-31T01:47:37.034Z,131.70
2018-03-31T01:48:36.979Z,136.60
2018-03-31T01:49:38.010Z,132.30
2018-03-31T01:50:37.477Z,140.70
2018-03-31T01:51:37.037Z,148.50
2018-03-31T01:52:36.481Z,134.50
2018-03-31T01:53:38.757Z,142.60
2018-03-31T01:54:37.795Z,143.00
2018-03-31T01:55:38.934Z,134.70
2018-03-31T01:56:37.742Z,132.50
2018-03-31T01:57:37.176Z,149.10
2018-03-31T01:58:36.653Z,157.20
2018-03-31T01:59:37.688Z,148.30
2018-03-31T02:00:37.394Z,154.50
2018-03-31T02:01:36.979Z,149.70
2018-03-31T02:02:37.395Z,140.50
2018-03-31T02:03:37.127Z,163.30
2018-03-31T02:04:36.664Z,146.90
2018-03-31T02:05:37.061Z,161.40
2018-03-31T02:06:58.206Z,168.60
2018-03-31T02:07:58.853Z,162.60
2018-03-31T02:08:59.660Z,168.40
2018-03-31T02:10:20.936Z,178.30
2018-03-31T02:11:21.477Z,174.80
2018-03-31T02:12:21.310Z,194.70
2018-03-31T02:13:20.931Z,179.20
2018-03-31T02:14:21.327Z,183.50
2018-03-31T02:15:21.043Z,187.30
2018-03-31T02:16:21.726Z,189.70
2018-03-31T02:17:21.447Z,180.40
2018-03-31T02:18:23.664Z,180.80
2018-03-31T02:19:22.249Z,196.70
2018-03-31T02:20:21.175Z,177.20
2018-03-31T02:21:21.459Z,177.30
2018-03-31T02:22:21.412Z,199.90
2018-03-31T02:23:21.202Z,195.80
2018-03-31T02:24:21.035Z,193.30
2018-03-31T02:25:20.733Z,188.10
2018-03-31T02:26:21.149Z,180.70
2018-03-31T02:27:20.909Z,186.30
2018-03-31T02:28:21.634Z,186.40
2018-03-31T02:29:21.327Z,183.50
2018-03-31T02:30:21.066Z,204.60
2018-03-31T02:31:21.420Z,248.20
2018-03-31T02:32:21.105Z,220.70
2018-03-31T02:33:20.795Z,226.50
2018-03-31T02:34:21.372Z,262.00
2018-03-31T02:35:41.440Z,245.60
2018-03-31T02:36:42.566Z,239.10
2018-03-31T02:37:42.342Z,246.40
2018-03-31T02:38:41.929Z,270.20
2018-03-31T02:39:41.710Z,279.30
2018-03-31T02:40:41.081Z,262.50
2018-03-31T02:41:42.036Z,253.00
2018-03-31T02:42:41.479Z,266.80
2018-03-31T02:43:41.810Z,252.20
2018-03-31T02:44:41.546Z,259.00
2018-03-31T02:45:42.022Z,272.00
2018-03-31T02:46:41.523Z,264.90
2018-03-31T02:47:41.879Z,278.70
2018-03-31T02:48:41.422Z,270.40
2018-03-31T02:49:42.319Z,281.70
2018-03-31T02:50:41.826Z,266.30
2018-03-31T02:51:41.542Z,266.90
2018-03-31T02:52:41.957Z,248.60
2018-03-31T02:53:41.614Z,259.20
2018-03-31T02:54:41.136Z,267.70
2018-03-31T02:55:41.554Z,260.50
2018-03-31T02:56:41.893Z,260.50
2018-03-31T02:57:41.446Z,249.60
2018-03-31T02:58:42.163Z,253.00
2018-03-31T02:59:42.436Z,246.30
2018-03-31T03:00:42.102Z,260.00
2018-03-31T03:01:41.932Z,253.10
2018-03-31T03:02:41.499Z,236.00
2018-03-31T03:03:41.951Z,235.80
2018-03-31T03:04:41.660Z,234.20
2018-03-31T03:05:42.121Z,233.00
2018-03-31T03:06:41.710Z,250.10
2018-03-31T03:07:41.225Z,240.40
2018-03-31T03:08:42.122Z,232.00
2018-03-31T03:09:41.966Z,237.40
2018-03-31T03:10:41.346Z,236.00
2018-03-31T03:11:42.399Z,232.30
2018-03-31T03:12:42.155Z,229.50
2018-03-31T03:13:41.556Z,223.60
2018-03-31T03:14:42.007Z,233.90
2018-03-31T03:15:41.411Z,226.60
2018-03-31T03:17:02.626Z,208.90
2018-03-31T03:18:03.211Z,219.20
2018-03-31T03:19:02.663Z,217.60
2018-03-31T03:20:24.252Z,213.90
2018-03-31T03:21:24.968Z,222.90
2018-03-31T03:22:24.987Z,236.70
2018-03-31T03:23:24.272Z,229.10
2018-03-31T03:24:24.581Z,229.50
2018-03-31T03:25:25.113Z,212.80
2018-03-31T03:26:24.603Z,206.20
2018-03-31T03:27:25.459Z,203.40
2018-03-31T03:28:24.994Z,197.10
2018-03-31T03:29:24.840Z,208.60
2018-03-31T03:30:24.549Z,202.30
2018-03-31T03:31:25.108Z,209.30
2018-03-31T03:32:24.879Z,201.30
2018-03-31T03:33:25.523Z,205.50
2018-03-31T03:34:25.203Z,202.40
2018-03-31T03:35:24.826Z,219.80
2018-03-31T03:36:24.833Z,199.40
2018-03-31T03:37:24.148Z,209.40
2018-03-31T03:38:24.566Z,192.00
2018-03-31T03:39:24.807Z,187.50
2018-03-31T03:40:25.468Z,208.30
2018-03-31T03:41:25.293Z,196.30
2018-03-31T03:42:24.499Z,189.60
2018-03-31T03:43:25.228Z,185.90
2018-03-31T03:44:24.784Z,194.00
2018-03-31T03:45:25.193Z,190.00
2018-03-31T03:46:24.516Z,199.70
2018-03-31T03:47:25.470Z,188.00
2018-03-31T03:48:24.868Z,190.30
2018-03-31T03:49:24.544Z,184.10
2018-03-31T03:50:25.372Z,193.20
2018-03-31T03:51:25.136Z,197.00
2018-03-31T03:52:24.883Z,186.20
2018-03-31T03:53:24.257Z,183.40
2018-03-31T03:54:25.004Z,199.50
2018-03-31T03:55:24.482Z,188.10
2018-03-31T03:56:24.899Z,186.50
2018-03-31T03:57:24.405Z,193.70
2018-03-31T03:58:25.146Z,187.00
2018-03-31T03:59:24.832Z,193.50
2018-03-31T04:00:24.159Z,185.90
2018-03-31T04:01:24.746Z,189.30
2018-03-31T04:02:25.130Z,181.10
2018-03-31T04:03:25.115Z,201.10
2018-03-31T04:04:24.732Z,200.20
2018-03-31T04:05:25.095Z,185.50
2018-03-31T04:06:24.881Z,202.80
2018-03-31T04:07:24.714Z,175.70
2018-03-31T04:08:24.653Z,183.40
2018-03-31T04:09:25.240Z,176.30
2018-03-31T04:10:25.013Z,174.50
2018-03-31T04:11:24.811Z,178.50
2018-03-31T04:12:24.332Z,172.30
2018-03-31T04:13:24.648Z,177.80
2018-03-31T04:14:25.427Z,161.80
2018-03-31T04:15:24.904Z,171.80
2018-03-31T04:16:24.556Z,167.70
2018-03-31T04:17:25.276Z,160.00
2018-03-31T04:18:25.073Z,170.30
2018-03-31T04:19:24.734Z,165.20
2018-03-31T04:20:24.194Z,156.40
2018-03-31T04:21:25.119Z,167.00
2018-03-31T04:22:24.968Z,163.10
2018-03-31T04:23:24.668Z,154.70
2018-03-31T04:24:25.607Z,152.90
2018-03-31T04:25:46.002Z,165.60
2018-03-31T04:26:46.406Z,166.90
2018-03-31T04:28:06.505Z,164.20
2018-03-31T04:29:07.241Z,159.40
2018-03-31T04:30:07.028Z,162.00
2018-03-31T04:31:06.647Z,154.70
2018-03-31T04:32:06.552Z,153.30
2018-03-31T04:33:07.371Z,151.40
2018-03-31T04:34:07.014Z,146.60
2018-03-31T04:35:06.547Z,144.70
2018-03-31T04:36:07.160Z,138.20
2018-03-31T04:37:06.578Z,136.70
2018-03-31T04:38:07.229Z,141.30
2018-03-31T04:39:06.940Z,143.20
2018-03-31T04:40:07.022Z,147.40
2018-03-31T04:41:06.305Z,142.80
2018-03-31T04:42:06.646Z,145.40
2018-03-31T04:43:27.148Z,142.80
2018-03-31T04:44:27.810Z,138.90
2018-03-31T04:45:27.245Z,143.90
2018-03-31T04:46:27.765Z,144.20
2018-03-31T04:47:27.009Z,143.40
2018-03-31T04:48:27.581Z,136.30
2018-03-31T04:49:28.429Z,145.10
2018-03-31T04:50:28.256Z,144.70
2018-03-31T04:51:27.915Z,134.30
2018-03-31T04:52:27.381Z,134.50
2018-03-31T04:53:28.227Z,132.60
2018-03-31T04:54:28.014Z,140.50
2018-03-31T04:55:27.767Z,134.70
2018-03-31T04:56:27.537Z,126.50
2018-03-31T04:57:49.353Z,136.00
2018-03-31T04:58:50.147Z,126.20
2018-03-31T04:59:49.536Z,134.20
2018-03-31T05:00:49.892Z,127.00
2018-03-31T05:01:49.423Z,128.00
2018-03-31T05:03:11.401Z,130.60
2018-03-31T05:04:11.886Z,133.30
2018-03-31T05:05:12.720Z,126.60
2018-03-31T05:06:33.376Z,127.10
2018-03-31T05:07:34.064Z,127.30
2018-03-31T05:08:33.948Z,128.80
2018-03-31T05:09:54.447Z,131.00
2018-03-31T05:10:55.371Z,124.50
2018-03-31T05:11:54.794Z,133.10
2018-03-31T05:12:54.842Z,132.10
2018-03-31T05:13:54.323Z,123.60
2018-03-31T05:14:54.955Z,114.10
2018-03-31T05:15:54.729Z,127.10
2018-03-31T05:16:54.063Z,122.50
2018-03-31T05:17:54.547Z,120.20
2018-03-31T05:18:55.387Z,116.50
2018-03-31T05:19:54.810Z,114.20
2018-03-31T05:20:54.791Z,118.30
2018-03-31T05:21:54.651Z,123.50
2018-03-31T05:22:55.433Z,128.50
2018-03-31T05:24:15.311Z,127.90
2018-03-31T05:25:16.260Z,127.90
2018-03-31T05:26:15.687Z,123.40
2018-03-31T05:27:16.566Z,122.40
2018-03-31T05:28:16.025Z,119.30
2018-03-31T05:29:15.707Z,125.00
2018-03-31T05:30:16.040Z,115.90
2018-03-31T05:31:15.582Z,115.80
2018-03-31T05:32:16.246Z,112.50
2018-03-31T05:33:15.638Z,111.80
2018-03-31T05:34:16.625Z,112.90
2018-03-31T05:35:16.320Z,111.10
2018-03-31T05:36:37.845Z,119.20
2018-03-31T05:37:38.559Z,115.40
2018-03-31T05:38:38.452Z,121.30
2018-03-31T05:39:58.164Z,122.70
2018-03-31T05:40:58.917Z,117.00
2018-03-31T05:41:58.791Z,119.50
2018-03-31T05:42:58.656Z,115.30
2018-03-31T05:43:59.148Z,108.00
2018-03-31T05:44:59.207Z,90.60
2018-03-31T05:45:58.821Z,89.90
2018-03-31T05:46:58.310Z,86.90
2018-03-31T05:47:59.111Z,82.10
2018-03-31T05:49:19.629Z,83.40
2018-03-31T05:50:20.056Z,91.00
2018-03-31T05:51:19.537Z,93.20
2018-03-31T05:52:20.055Z,86.30
2018-03-31T05:53:19.697Z,88.70
2018-03-31T05:54:20.231Z,91.90
2018-03-31T05:55:20.065Z,85.40
2018-03-31T05:56:20.061Z,78.90
2018-03-31T05:57:20.795Z,78.50
2018-03-31T05:58:41.568Z,80.00
2018-03-31T05:59:42.514Z,75.70
2018-03-31T06:00:42.139Z,69.20
2018-03-31T06:01:41.618Z,68.90
2018-03-31T06:02:42.666Z,67.60
2018-03-31T06:03:42.099Z,74.70
2018-03-31T06:04:41.413Z,62.90
2018-03-31T06:05:41.838Z,57.70
2018-03-31T06:06:42.620Z,59.00
2018-03-31T06:07:42.073Z,52.90
2018-03-31T06:08:42.607Z,45.00
2018-03-31T06:09:42.312Z,43.10
2018-03-31T06:11:02.488Z,51.10
2018-03-31T06:12:03.056Z,52.00
2018-03-31T06:13:02.626Z,57.20
2018-03-31T06:14:03.401Z,53.70
2018-03-31T06:15:02.894Z,53.50
2018-03-31T06:16:02.787Z,59.00
2018-03-31T06:17:03.430Z,51.30
2018-03-31T06:18:02.844Z,54.10
2018-03-31T06:19:03.264Z,53.90
2018-03-31T06:20:02.882Z,50.80
2018-03-31T06:21:02.743Z,52.30
2018-03-31T06:22:03.442Z,57.80
2018-03-31T06:23:03.115Z,55.80
2018-03-31T06:24:02.486Z,54.00
2018-03-31T06:25:03.260Z,50.70
2018-03-31T06:26:02.800Z,44.10
2018-03-31T06:27:02.786Z,45.90
2018-03-31T06:28:03.675Z,45.20
2018-03-31T06:29:03.529Z,48.30
2018-03-31T06:30:02.904Z,48.90
2018-03-31T06:31:02.784Z,44.00
2018-03-31T06:32:24.402Z,49.20
2018-03-31T06:33:45.424Z,46.70
2018-03-31T06:34:45.820Z,52.90
2018-03-31T06:35:46.754Z,51.40
2018-03-31T06:36:46.444Z,47.60
2018-03-31T06:38:07.187Z,47.00
2018-03-31T06:39:08.019Z,44.20
2018-03-31T06:40:07.726Z,45.80
2018-03-31T06:41:07.428Z,47.60
2018-03-31T06:42:06.926Z,40.10
2018-03-31T06:43:07.463Z,42.50
2018-03-31T06:44:28.850Z,41.90
2018-03-31T06:45:29.302Z,41.90
2018-03-31T06:46:28.861Z,43.30
2018-03-31T06:47:29.490Z,43.40
2018-03-31T06:48:29.043Z,45.40
2018-03-31T06:49:28.698Z,46.60
2018-03-31T06:50:29.567Z,46.00
2018-03-31T06:51:29.083Z,47.00
2018-03-31T06:52:29.992Z,46.50
2018-03-31T06:53:29.690Z,48.00
2018-03-31T06:55:29.602Z,45.20
2018-03-31T06:56:11.202Z,45.40
2018-03-31T06:57:11.623Z,45.20
2018-03-31T06:58:12.033Z,45.90
2018-03-31T06:59:11.680Z,42.30
2018-03-31T07:00:45.271Z,48.60
2018-03-31T07:01:49.755Z,44.00
2018-03-31T07:02:40.668Z,39.70
2018-03-31T07:03:40.452Z,41.50
2018-03-31T07:04:40.485Z,36.70
2018-03-31T07:05:40.435Z,45.30
2018-03-31T07:06:40.038Z,43.90
2018-03-31T07:07:40.901Z,41.20
2018-03-31T07:08:40.807Z,40.30
2018-03-31T07:09:40.697Z,45.20
2018-03-31T07:10:40.077Z,47.60
2018-03-31T07:11:39.486Z,46.70
2018-03-31T07:12:40.369Z,43.10
2018-03-31T07:13:40.316Z,44.20
2018-03-31T07:14:40.127Z,43.10
2018-03-31T07:15:40.826Z,39.30
2018-03-31T07:16:40.741Z,38.40
2018-03-31T07:17:40.218Z,37.70
2018-03-31T07:18:40.060Z,34.00
2018-03-31T07:19:40.730Z,33.70
2018-03-31T07:20:40.776Z,35.80
2018-03-31T07:21:40.630Z,34.30
2018-03-31T07:23:01.824Z,30.30
2018-03-31T07:24:02.352Z,30.40
2018-03-31T07:25:02.407Z,32.50
2018-03-31T07:26:02.267Z,30.40
2018-03-31T07:27:03.585Z,31.10
2018-03-31T07:28:02.467Z,36.30
2018-03-31T07:29:02.255Z,39.40
2018-03-31T07:30:01.746Z,37.90
2018-03-31T07:31:02.687Z,38.70
2018-03-31T07:32:02.341Z,38.70
2018-03-31T07:33:01.726Z,40.10
2018-03-31T07:34:03.126Z,40.80
2018-03-31T07:35:01.915Z,43.60
2018-03-31T07:36:02.637Z,38.80
2018-03-31T07:37:02.186Z,41.20
2018-03-31T07:38:23.641Z,43.00
2018-03-31T07:39:24.566Z,40.50
2018-03-31T07:40:24.379Z,39.40
2018-03-31T07:41:24.056Z,37.90
2018-03-31T07:43:05.100Z,37.90
2018-03-31T07:44:05.896Z,38.00
2018-03-31T07:45:06.020Z,36.20
2018-03-31T07:46:25.466Z,36.50
2018-03-31T07:47:26.085Z,31.90
2018-03-31T07:48:25.514Z,32.30
2018-03-31T07:49:25.502Z,29.90
2018-03-31T07:50:26.313Z,28.50
2018-03-31T07:51:26.107Z,30.90
2018-03-31T07:52:25.882Z,30.20
2018-03-31T07:53:25.660Z,29.60
2018-03-31T07:54:25.696Z,27.40
2018-03-31T07:55:26.346Z,25.80
2018-03-31T07:56:25.673Z,27.20
2018-03-31T07:58:27.268Z,26.00
2018-03-31T07:59:28.226Z,27.80
2018-03-31T08:00:48.984Z,26.60
2018-03-31T08:01:49.831Z,27.10
2018-03-31T08:02:49.998Z,28.60
2018-03-31T08:03:49.371Z,27.80
2018-03-31T08:04:49.381Z,30.80
2018-03-31T08:05:49.064Z,30.40
2018-03-31T08:06:50.011Z,34.50
2018-03-31T08:08:10.360Z,33.20
2018-03-31T08:09:10.809Z,33.60
2018-03-31T08:10:31.177Z,33.60
2018-03-31T08:11:53.406Z,33.00
2018-03-31T08:12:54.122Z,34.50
2018-03-31T08:13:53.762Z,37.40
2018-03-31T08:14:53.800Z,33.00
2018-03-31T08:16:14.109Z,30.30
2018-03-31T08:17:15.029Z,30.40
2018-03-31T08:18:35.329Z,29.50
2018-03-31T08:19:36.298Z,27.80
2018-03-31T08:20:35.859Z,27.30
2018-03-31T08:21:35.858Z,23.30
2018-03-31T08:22:35.829Z,22.80
2018-03-31T08:23:35.462Z,23.90
2018-03-31T08:24:36.557Z,29.10
2018-03-31T08:25:36.371Z,24.40
2018-03-31T08:26:36.594Z,235.80
2018-03-31T08:27:36.273Z,43.80
2018-03-31T08:28:36.062Z,24.90
2018-03-31T08:29:36.048Z,28.50
2018-03-31T08:30:36.126Z,26.80
2018-03-31T08:31:36.089Z,22.20
2018-03-31T08:32:35.796Z,22.30
2018-03-31T08:33:35.515Z,31.30
2018-03-31T08:34:36.529Z,35.80
2018-03-31T08:35:36.647Z,28.50
2018-03-31T08:36:35.656Z,23.70
2018-03-31T08:37:36.301Z,24.10
2018-03-31T08:38:35.985Z,24.80
2018-03-31T08:39:35.949Z,21.60
2018-03-31T08:40:36.058Z,21.60
2018-03-31T08:41:35.833Z,22.30
2018-03-31T08:42:35.502Z,22.50
2018-03-31T08:43:36.306Z,21.90
2018-03-31T08:44:36.348Z,22.50
2018-03-31T08:45:35.856Z,23.20
2018-03-31T08:46:35.810Z,22.80
2018-03-31T08:47:56.507Z,21.30
2018-03-31T08:48:57.057Z,22.30
2018-03-31T08:49:57.672Z,22.40
2018-03-31T08:50:57.656Z,20.60
2018-03-31T08:51:57.168Z,22.70
2018-03-31T08:52:57.080Z,21.80
2018-03-31T08:53:56.696Z,21.60
2018-03-31T08:54:57.139Z,21.50
2018-03-31T08:55:57.959Z,23.70
2018-03-31T08:56:57.487Z,20.40
2018-03-31T08:57:56.951Z,20.80
2018-03-31T08:58:57.863Z,22.30
2018-03-31T08:59:57.583Z,22.20
2018-03-31T09:00:57.404Z,21.60
2018-03-31T09:01:56.918Z,21.20
2018-03-31T09:03:18.614Z,20.10
2018-03-31T09:04:19.158Z,23.40
2018-03-31T09:05:18.635Z,20.70
2018-03-31T09:06:39.526Z,22.60
2018-03-31T09:07:40.116Z,20.60
2018-03-31T09:08:40.107Z,21.80
2018-03-31T09:09:39.967Z,20.30
2018-03-31T09:10:40.038Z,19.60
2018-03-31T09:11:40.041Z,19.50
2018-03-31T09:12:39.541Z,19.20
2018-03-31T09:13:40.463Z,20.60
2018-03-31T09:14:39.907Z,19.70
2018-03-31T09:15:39.393Z,21.50
2018-03-31T09:16:40.157Z,21.90
2018-03-31T09:17:40.180Z,20.40
2018-03-31T09:18:39.924Z,21.40
2018-03-31T09:19:39.566Z,22.30
2018-03-31T09:20:40.719Z,21.40
2018-03-31T09:21:40.265Z,36.40
2018-03-31T09:22:45.734Z,38.20
2018-03-31T09:23:26.060Z,29.90
2018-03-31T09:24:27.337Z,26.60
2018-03-31T09:25:27.382Z,23.70
2018-03-31T09:26:26.911Z,22.50
2018-03-31T09:28:08.891Z,20.40
2018-03-31T09:29:51.325Z,21.00
2018-03-31T09:30:51.996Z,21.10
2018-03-31T09:31:51.878Z,20.60
2018-03-31T09:32:51.464Z,20.00
2018-03-31T09:33:52.345Z,19.20
2018-03-31T09:35:13.516Z,20.20
2018-03-31T09:36:14.163Z,19.10
2018-03-31T09:37:13.976Z,20.70
2018-03-31T09:38:34.703Z,21.20
2018-03-31T09:39:35.062Z,21.70
2018-03-31T09:40:34.843Z,21.80
2018-03-31T09:41:34.657Z,20.60
2018-03-31T09:42:34.460Z,18.00
2018-03-31T09:43:35.231Z,20.60
2018-03-31T09:44:34.830Z,20.10
2018-03-31T09:45:34.632Z,19.00
2018-03-31T09:46:35.267Z,19.70
2018-03-31T09:47:34.943Z,19.60
2018-03-31T09:48:34.685Z,19.50
2018-03-31T09:49:35.474Z,19.10
2018-03-31T09:50:35.554Z,18.60
2018-03-31T09:51:34.988Z,19.30
2018-03-31T09:52:34.573Z,19.40
2018-03-31T09:53:35.270Z,17.90
2018-03-31T09:54:35.284Z,18.80
2018-03-31T09:55:35.444Z,18.80
2018-03-31T09:56:35.488Z,18.20
2018-03-31T09:57:35.201Z,19.20
2018-03-31T09:58:35.256Z,18.10
2018-03-31T09:59:35.173Z,17.70
2018-03-31T10:00:35.283Z,18.30
2018-03-31T10:01:35.110Z,19.80
2018-03-31T10:02:34.791Z,19.00
2018-03-31T10:03:34.729Z,18.40
2018-03-31T10:04:34.437Z,18.30
2018-03-31T10:05:35.557Z,21.60
2018-03-31T10:06:34.724Z,16.80
2018-03-31T10:07:34.311Z,15.90
2018-03-31T10:08:56.935Z,18.30
2018-03-31T10:09:58.556Z,19.00
2018-03-31T10:10:56.280Z,17.70
2018-03-31T10:11:56.694Z,18.00
2018-03-31T10:12:56.524Z,17.00
2018-03-31T10:13:57.558Z,17.00
2018-03-31T10:14:56.852Z,18.00
2018-03-31T10:15:56.726Z,17.00
2018-03-31T10:16:56.262Z,17.50
2018-03-31T10:17:56.840Z,16.80
2018-03-31T10:19:13.220Z,15.60
2018-03-31T10:19:57.257Z,15.40
2018-03-31T10:20:56.086Z,17.00
2018-03-31T10:22:18.739Z,16.40
2018-03-31T10:23:19.561Z,16.90
2018-03-31T10:24:19.326Z,16.70
2018-03-31T10:25:19.256Z,19.40
2018-03-31T10:26:39.612Z,17.80
2018-03-31T10:27:40.317Z,18.40
2018-03-31T10:28:40.648Z,19.90
2018-03-31T10:29:40.454Z,17.40
2018-03-31T10:30:40.269Z,17.20
2018-03-31T10:31:40.392Z,18.40
2018-03-31T10:32:40.106Z,17.00
2018-03-31T10:33:40.128Z,17.30
2018-03-31T10:34:40.375Z,18.60
2018-03-31T10:36:01.536Z,18.80
2018-03-31T10:37:02.668Z,17.40
2018-03-31T10:38:02.402Z,18.70
2018-03-31T10:39:02.488Z,21.00
2018-03-31T10:40:02.663Z,20.30
2018-03-31T10:41:02.191Z,17.60
2018-03-31T10:42:02.411Z,17.10
2018-03-31T10:43:02.002Z,18.50
2018-03-31T10:44:02.084Z,17.10
2018-03-31T10:45:02.128Z,17.60
2018-03-31T10:46:02.165Z,18.30
2018-03-31T10:47:01.917Z,17.70
2018-03-31T10:48:22.554Z,19.10
2018-03-31T10:49:23.252Z,16.50
2018-03-31T10:50:23.412Z,17.00
2018-03-31T10:51:23.401Z,15.70
2018-03-31T10:52:22.897Z,15.70
2018-03-31T10:53:23.383Z,16.60
2018-03-31T10:54:23.427Z,16.50
2018-03-31T10:55:23.596Z,17.20
2018-03-31T10:56:23.369Z,16.50
2018-03-31T10:57:23.123Z,16.60
2018-03-31T10:58:22.747Z,18.90
2018-03-31T10:59:44.652Z,16.40
2018-03-31T11:00:44.268Z,18.40
2018-03-31T11:01:44.860Z,17.10
2018-03-31T11:03:05.909Z,17.60
2018-03-31T11:04:06.585Z,16.70
2018-03-31T11:05:06.630Z,17.00
2018-03-31T11:06:06.613Z,17.50
2018-03-31T11:07:06.376Z,17.30
2018-03-31T11:08:06.226Z,15.50
2018-03-31T11:09:07.686Z,26.90
2018-03-31T11:10:06.163Z,17.00
2018-03-31T11:11:07.105Z,17.10
2018-03-31T11:12:06.654Z,27.50
2018-03-31T11:13:07.654Z,18.20
2018-03-31T11:14:07.125Z,17.70
2018-03-31T11:15:07.099Z,18.60
2018-03-31T11:16:06.373Z,20.10
2018-03-31T11:17:06.499Z,19.10
2018-03-31T11:18:06.484Z,16.20
2018-03-31T11:19:06.634Z,16.00
2018-03-31T11:20:06.727Z,16.40
2018-03-31T11:21:06.643Z,16.80
2018-03-31T11:22:06.715Z,15.70
2018-03-31T11:23:06.594Z,16.60
2018-03-31T11:24:06.576Z,16.40
2018-03-31T11:25:06.422Z,17.30
2018-03-31T11:26:06.268Z,16.40
2018-03-31T11:27:07.271Z,15.10
2018-03-31T11:28:07.257Z,16.20
2018-03-31T11:29:07.106Z,15.20
2018-03-31T11:30:07.271Z,15.80
2018-03-31T11:31:06.234Z,16.70
2018-03-31T11:32:06.432Z,15.70
2018-03-31T11:33:27.942Z,15.20
2018-03-31T11:34:28.077Z,15.10
2018-03-31T11:35:28.039Z,15.70
2018-03-31T11:36:28.255Z,16.60
2018-03-31T11:37:27.742Z,19.20
2018-03-31T11:38:28.730Z,16.70
2018-03-31T11:39:28.321Z,16.10
2018-03-31T11:40:28.327Z,16.90
2018-03-31T11:41:28.295Z,15.10
2018-03-31T11:42:28.337Z,17.80
2018-03-31T11:43:28.458Z,15.00
2018-03-31T11:44:28.556Z,14.70
2018-03-31T11:45:28.668Z,14.20
2018-03-31T11:46:28.284Z,14.30
2018-03-31T11:47:27.726Z,14.40
2018-03-31T11:48:28.762Z,16.20
2018-03-31T11:49:28.514Z,15.10
2018-03-31T11:50:27.930Z,17.20
2018-03-31T11:51:29.002Z,17.40
2018-03-31T11:52:27.911Z,15.00
2018-03-31T11:53:27.908Z,14.90
2018-03-31T11:54:27.800Z,14.30
2018-03-31T11:55:49.215Z,16.00
2018-03-31T11:56:49.972Z,15.90
2018-03-31T11:57:49.674Z,16.50
2018-03-31T11:58:50.255Z,16.00
2018-03-31T11:59:50.046Z,15.90
2018-03-31T12:00:49.588Z,19.60
2018-03-31T12:01:50.477Z,16.50
2018-03-31T12:03:11.852Z,18.70
2018-03-31T12:04:54.045Z,19.60
2018-03-31T12:05:54.936Z,32.10
2018-03-31T12:06:54.918Z,15.50
2018-03-31T12:07:54.358Z,15.80
2018-03-31T12:08:54.968Z,18.70
2018-03-31T12:09:54.767Z,17.70
2018-03-31T12:10:54.329Z,19.60
2018-03-31T12:11:55.122Z,16.50
2018-03-31T12:12:54.589Z,17.20
2018-03-31T12:13:54.488Z,16.50
2018-03-31T12:14:55.156Z,16.80
2018-03-31T12:15:55.362Z,17.90
2018-03-31T12:16:55.309Z,16.00
2018-03-31T12:17:55.305Z,17.20
2018-03-31T12:18:54.901Z,17.30
2018-03-31T12:19:54.780Z,16.80
2018-03-31T12:20:54.425Z,16.10
2018-03-31T12:21:55.050Z,15.30
2018-03-31T12:22:55.195Z,14.20
2018-03-31T12:23:54.937Z,14.40
2018-03-31T12:24:54.957Z,15.00
2018-03-31T12:25:54.574Z,14.70
2018-03-31T12:26:54.714Z,14.60
2018-03-31T12:27:55.233Z,16.40
2018-03-31T12:28:54.881Z,14.70
2018-03-31T12:29:54.694Z,15.10
2018-03-31T12:30:54.331Z,14.70
2018-03-31T12:31:54.934Z,14.80
2018-03-31T12:32:54.381Z,14.90
2018-03-31T12:34:16.600Z,15.70
2018-03-31T12:35:17.721Z,14.50
2018-03-31T12:36:16.925Z,15.00
2018-03-31T12:37:37.498Z,15.60
2018-03-31T12:38:38.331Z,15.70
2018-03-31T12:39:38.062Z,15.40
2018-03-31T12:40:38.371Z,14.30
2018-03-31T12:41:37.943Z,25.20
2018-03-31T12:42:38.556Z,15.80
2018-03-31T12:43:39.150Z,14.80
2018-03-31T12:44:38.626Z,15.80
2018-03-31T12:45:38.569Z,14.10
2018-03-31T12:46:39.487Z,16.00
2018-03-31T12:47:38.231Z,16.30
2018-03-31T12:48:38.022Z,15.40
2018-03-31T12:49:37.818Z,14.60
2018-03-31T12:50:38.867Z,15.40
2018-03-31T12:51:37.781Z,14.90
2018-03-31T12:52:38.613Z,14.10
2018-03-31T12:53:38.363Z,14.80
2018-03-31T12:55:21.118Z,14.00
2018-03-31T12:56:21.324Z,16.90
2018-03-31T12:57:21.073Z,15.10
2018-03-31T12:58:21.135Z,14.70
2018-03-31T12:59:21.154Z,14.50
2018-03-31T13:00:20.610Z,14.70
2018-03-31T13:01:21.641Z,15.60
2018-03-31T13:02:21.481Z,14.40
2018-03-31T13:03:21.190Z,15.30
2018-03-31T13:04:21.058Z,14.90
2018-03-31T13:05:20.683Z,14.30
2018-03-31T13:06:21.289Z,13.20
2018-03-31T13:07:43.149Z,13.20
2018-03-31T13:08:44.002Z,12.70
2018-03-31T13:09:44.234Z,15.90
2018-03-31T13:10:46.137Z,18.50